Time;durP1;ratioP1;P1;durP2;ratioP2;P2;SDS_P1;SDS_P2;PMS_P1;PMS_P2;Temp;Humidity;BMP_temperature;BMP_pressure;BME280_temperature;BME280_humidity;BME280_pressure;Samples;Min_cycle;Max_cycle;Signal;HPM_P1;HPM_P2
2022/10/29 00:06:58;;;;;;;24.5;29.6;;;;;;;10.5;91.9;99540;;;;
2022/10/29 00:17:58;;;;;;;24.5;29.6;;;;;;;10.5;92;99530;;;;
2022/10/29 00:28:58;;;;;;;24.5;29.6;;;;;;;10.4;92.1;99510;;;;
2022/10/29 00:39:58;;;;;;;21.8;25.8;;;;;;;10.5;92.3;99510;;;;
2022/10/29 00:50:58;;;;;;;21.8;25.8;;;;;;;10.5;92;99510;;;;
2022/10/29 01:00:58;;;;;;;21.8;25.8;;;;;;;10.5;92.1;99500;;;;
2022/10/29 01:10:58;;;;;;;20;23.5;;;;;;;10.4;91.9;99500;;;;
2022/10/29 01:21:58;;;;;;;20;23.5;;;;;;;10.4;91.6;99490;;;;
2022/10/29 01:31:58;;;;;;;20;23.5;;;;;;;10.4;91.5;99480;;;;
2022/10/29 01:42:58;;;;;;;19.5;23.4;;;;;;;10.3;91.6;99480;;;;
2022/10/29 01:52:58;;;;;;;19.5;23.4;;;;;;;10.3;91.7;99470;;;;
2022/10/29 02:03:58;;;;;;;19.5;23.4;;;;;;;10.3;91.7;99460;;;;
2022/10/29 02:13:58;;;;;;;18.9;25.1;;;;;;;10.3;91.5;99450;;;;
2022/10/29 02:24:58;;;;;;;18.9;25.1;;;;;;;10.3;91.7;99450;;;;
2022/10/29 02:35:58;;;;;;;16.7;19.7;;;;;;;10.4;91.8;99450;;;;
2022/10/29 02:45:58;;;;;;;16.7;19.7;;;;;;;10.5;92;99440;;;;
2022/10/29 02:56:58;;;;;;;16.7;19.7;;;;;;;10.5;91.9;99450;;;;
2022/10/29 03:06:58;;;;;;;17.1;20.1;;;;;;;10.6;91.6;99450;;;;
2022/10/29 03:16:58;;;;;;;17.1;20.1;;;;;;;10.4;91.5;99440;;;;
2022/10/29 03:26:58;;;;;;;17.1;20.1;;;;;;;10.5;91.2;99440;;;;
2022/10/29 03:37:58;;;;;;;15.4;18.6;;;;;;;10.4;90.9;99430;;;;
2022/10/29 03:47:58;;;;;;;15.4;18.6;;;;;;;10.3;90.8;99430;;;;
2022/10/29 03:57:58;;;;;;;15.4;18.6;;;;;;;10.3;90.8;99430;;;;
2022/10/29 04:08:58;;;;;;;16.2;19.7;;;;;;;10.1;90.8;99410;;;;
2022/10/29 04:19:58;;;;;;;16.2;19.7;;;;;;;10.1;90.8;99440;;;;
2022/10/29 04:30:58;;;;;;;16.2;19.7;;;;;;;10;91.1;99440;;;;
2022/10/29 04:41:58;;;;;;;17.1;21.6;;;;;;;9.9;90.9;99440;;;;
2022/10/29 04:51:58;;;;;;;17.1;21.6;;;;;;;9.8;91;99430;;;;
2022/10/29 05:01:58;;;;;;;17.1;21.6;;;;;;;9.9;91;99430;;;;
2022/10/29 05:12:58;;;;;;;16;21.4;;;;;;;9.9;91.3;99440;;;;
2022/10/29 05:23:58;;;;;;;16;21.4;;;;;;;10;91.7;99450;;;;
2022/10/29 05:33:58;;;;;;;16;21.4;;;;;;;10.3;91.8;99460;;;;
2022/10/29 05:44:58;;;;;;;14.3;18.4;;;;;;;10.4;91.8;99410;;;;
2022/10/29 05:55:58;;;;;;;14.3;18.4;;;;;;;10.6;92;99380;;;;
2022/10/29 06:06:58;;;;;;;11.5;14.3;;;;;;;10.9;91.2;99460;;;;
2022/10/29 06:16:58;;;;;;;11.5;14.3;;;;;;;11;91.1;99440;;;;
2022/10/29 06:26:58;;;;;;;11.5;14.3;;;;;;;11.1;90.3;99460;;;;
2022/10/29 06:36:58;;;;;;;12;15.2;;;;;;;11.2;89.9;99440;;;;
2022/10/29 06:47:58;;;;;;;12;15.2;;;;;;;11.5;89.7;99450;;;;
2022/10/29 06:58:58;;;;;;;12;15.2;;;;;;;11.6;89.1;99460;;;;
2022/10/29 07:08:58;;;;;;;14.7;18.6;;;;;;;11.8;88.5;99490;;;;
2022/10/29 07:18:58;;;;;;;14.7;18.6;;;;;;;12.1;88.3;99490;;;;
2022/10/29 07:29:58;;;;;;;14.7;18.6;;;;;;;12.6;87.8;99510;;;;
2022/10/29 07:39:58;;;;;;;11.7;14.8;;;;;;;12.9;86.6;99510;;;;
2022/10/29 07:49:58;;;;;;;11.7;14.8;;;;;;;13.2;85.3;99500;;;;
2022/10/29 08:00:58;;;;;;;11.7;14.8;;;;;;;13.3;85;99520;;;;
2022/10/29 08:10:58;;;;;;;11;13.4;;;;;;;13.1;84.8;99530;;;;
2022/10/29 08:21:58;;;;;;;11;13.4;;;;;;;13.6;85.1;99530;;;;
2022/10/29 08:32:58;;;;;;;11;13.4;;;;;;;14;84.3;99530;;;;
2022/10/29 08:43:58;;;;;;;13.4;16;;;;;;;14.5;83.3;99530;;;;
2022/10/29 08:54:58;;;;;;;13.4;16;;;;;;;14.9;81.6;99530;;;;
2022/10/29 09:05:00;;;;;;;11.3;13.5;;;;;;;15.1;81.2;99520;;;;
2022/10/29 09:14:58;;;;;;;11.3;13.5;;;;;;;15.4;79.2;99530;;;;
2022/10/29 09:25:58;;;;;;;11.3;13.5;;;;;;;15.8;78.3;99520;;;;
2022/10/29 09:35:58;;;;;;;9.2;14.1;;;;;;;16.2;78;99510;;;;
2022/10/29 09:45:58;;;;;;;9.2;14.1;;;;;;;16.5;76;99500;;;;
2022/10/29 09:55:58;;;;;;;9.2;14.1;;;;;;;17.2;74.8;99500;;;;
2022/10/29 10:06:58;;;;;;;8.1;12.5;;;;;;;17.7;73;99490;;;;
2022/10/29 10:16:58;;;;;;;8.1;12.5;;;;;;;17.8;71.3;99490;;;;
2022/10/29 10:27:59;;;;;;;8.1;12.5;;;;;;;18.1;71.1;99470;;;;
2022/10/29 10:38:58;;;;;;;5.9;9.5;;;;;;;18.4;69.7;99460;;;;
2022/10/29 10:48:58;;;;;;;5.9;9.5;;;;;;;18.8;69.6;99450;;;;
2022/10/29 10:59:58;;;;;;;5.9;9.5;;;;;;;19.5;67.2;99430;;;;
2022/10/29 11:10:58;;;;;;;5.1;8.9;;;;;;;19.6;65.8;99420;;;;
2022/10/29 11:21:59;;;;;;;5.1;8.9;;;;;;;19.2;66.5;99410;;;;
2022/10/29 11:32:58;;;;;;;5.1;8.9;;;;;;;19.4;66.1;99390;;;;
2022/10/29 11:43:01;;;;;;;5;8.4;;;;;;;19.8;64.9;99400;;;;
2022/10/29 11:53:58;;;;;;;5;8.4;;;;;;;19.7;64.7;99390;;;;
2022/10/29 12:04:59;;;;;;;5.2;11.2;;;;;;;19.6;66;99390;;;;
2022/10/29 12:15:58;;;;;;;5.2;11.2;;;;;;;19.4;65.2;99380;;;;
2022/10/29 12:26:58;;;;;;;5.2;11.2;;;;;;;19.3;66.2;99390;;;;
2022/10/29 12:37:58;;;;;;;5.1;10.3;;;;;;;19.4;65.3;99380;;;;
2022/10/29 12:47:59;;;;;;;5.1;10.3;;;;;;;19.6;65.5;99360;;;;
2022/10/29 12:58:58;;;;;;;5.1;10.3;;;;;;;19.6;65;99350;;;;
2022/10/29 13:08:58;;;;;;;5.8;9.2;;;;;;;19.6;65.5;99350;;;;
2022/10/29 13:18:58;;;;;;;5.8;9.2;;;;;;;19.7;65.8;99350;;;;
2022/10/29 13:28:58;;;;;;;5.8;9.2;;;;;;;19.9;65.2;99350;;;;
2022/10/29 13:39:58;;;;;;;6.3;13;;;;;;;19.7;64.9;99350;;;;
2022/10/29 13:50:58;;;;;;;6.3;13;;;;;;;19.7;65.5;99330;;;;
2022/10/29 14:01:59;;;;;;;6.3;13;;;;;;;19.5;65.2;99330;;;;
2022/10/29 14:12:59;;;;;;;7.3;18.3;;;;;;;19.5;65.6;99330;;;;
2022/10/29 14:23:58;;;;;;;7.3;18.3;;;;;;;19.2;66.1;99340;;;;
2022/10/29 14:33:58;;;;;;;7.3;18.3;;;;;;;18.8;67;99340;;;;
2022/10/29 14:43:58;;;;;;;7;15.5;;;;;;;18.4;68.1;99330;;;;
2022/10/29 14:54:58;;;;;;;7;15.5;;;;;;;18.1;69.2;99330;;;;
2022/10/29 15:04:58;;;;;;;17.5;26.6;;;;;;;17.8;70.4;99340;;;;
2022/10/29 15:14:58;;;;;;;17.5;26.6;;;;;;;17.4;71.8;99360;;;;
2022/10/29 15:25:58;;;;;;;;;;;;;;;17;;;;;;
2022/10/29 15:36:59;;;;;;;12.5;21.8;;;;;;;16.6;72.9;99370;;;;
2022/10/29 15:47:58;;;;;;;12.5;21.8;;;;;;;16.3;74.5;99380;;;;
2022/10/29 15:57:59;;;;;;;12.5;21.8;;;;;;;16.1;75;99380;;;;
2022/10/29 16:08:59;;;;;;;14.1;22.7;;;;;;;15.9;75.5;99390;;;;
2022/10/29 16:18:59;;;;;;;14.1;22.7;;;;;;;15.7;76.4;99370;;;;
2022/10/29 16:29:58;;;;;;;14.1;22.7;;;;;;;15.4;77.1;99370;;;;
2022/10/29 16:40:58;;;;;;;18.5;23.3;;;;;;;15.2;78;99360;;;;
2022/10/29 16:50:58;;;;;;;18.5;23.3;;;;;;;15;79.3;99350;;;;
2022/10/29 17:01:59;;;;;;;18.5;23.3;;;;;;;15;79.6;99370;;;;
2022/10/29 17:11:58;;;;;;;18.8;22.3;;;;;;;14.8;80.4;99380;;;;
2022/10/29 17:22:59;;;;;;;18.8;22.3;;;;;;;14.7;81;99370;;;;
2022/10/29 17:33:58;;;;;;;18.8;22.3;;;;;;;14.5;81.9;99380;;;;
2022/10/29 17:43:59;;;;;;;21;26.9;;;;;;;14.4;81.8;99380;;;;
2022/10/29 17:54:59;;;;;;;21;26.9;;;;;;;14.3;82.2;99390;;;;
2022/10/29 18:05:59;;;;;;;20;24.9;;;;;;;14.2;82.7;99380;;;;
2022/10/29 18:15:59;;;;;;;20;24.9;;;;;;;14;83.4;99390;;;;
2022/10/29 18:26:59;;;;;;;20;24.9;;;;;;;13.8;84;99380;;;;
2022/10/29 18:36:59;;;;;;;20.9;28.4;;;;;;;13.7;83.9;99370;;;;
2022/10/29 18:46:59;;;;;;;20.9;28.4;;;;;;;13.5;84.9;99380;;;;
2022/10/29 18:56:59;;;;;;;20.9;28.4;;;;;;;13.4;85.3;99370;;;;
2022/10/29 19:07:59;;;;;;;23.7;31.5;;;;;;;13.2;86.1;99380;;;;
2022/10/29 19:17:59;;;;;;;23.7;31.5;;;;;;;13.1;86.6;99380;;;;
2022/10/29 19:27:59;;;;;;;23.7;31.5;;;;;;;12.9;86.9;99400;;;;
2022/10/29 19:38:59;;;;;;;22.5;28.8;;;;;;;12.9;87.1;99400;;;;
2022/10/29 19:48:59;;;;;;;22.5;28.8;;;;;;;12.8;87.3;99390;;;;
2022/10/29 19:58:59;;;;;;;22.5;28.8;;;;;;;12.7;87.5;99400;;;;
2022/10/29 20:09:59;;;;;;;24.8;31;;;;;;;12.7;87.4;99390;;;;
2022/10/29 20:19:59;;;;;;;24.8;31;;;;;;;12.6;87.9;99390;;;;
2022/10/29 20:30:59;;;;;;;24.8;31;;;;;;;12.8;87.9;99400;;;;
2022/10/29 20:41:59;;;;;;;18.7;23.5;;;;;;;12.9;87.5;99400;;;;
2022/10/29 20:51:59;;;;;;;18.7;23.5;;;;;;;13;87.3;99400;;;;
2022/10/29 21:02:59;;;;;;;18.7;23.5;;;;;;;13.1;87.1;99400;;;;
2022/10/29 21:12:59;;;;;;;21.7;27.4;;;;;;;13.1;86.9;99410;;;;
2022/10/29 21:22:59;;;;;;;21.7;27.4;;;;;;;13.1;86.9;99390;;;;
2022/10/29 21:33:59;;;;;;;21.9;26;;;;;;;13.2;86.6;99400;;;;
2022/10/29 21:43:59;;;;;;;21.9;26;;;;;;;13.1;86.7;99390;;;;
2022/10/29 21:53:59;;;;;;;21.9;26;;;;;;;13.2;86.5;99360;;;;
2022/10/29 22:04:59;;;;;;;23.6;28.6;;;;;;;13.1;86.4;99360;;;;
2022/10/29 22:15:59;;;;;;;23.6;28.6;;;;;;;13;86.6;99340;;;;
2022/10/29 22:26:59;;;;;;;23.6;28.6;;;;;;;13;86.7;99330;;;;
2022/10/29 22:36:59;;;;;;;18.5;21.5;;;;;;;13.1;86.7;99310;;;;
2022/10/29 22:47:59;;;;;;;18.5;21.5;;;;;;;13.1;86.5;99320;;;;
2022/10/29 22:58:59;;;;;;;18.5;21.5;;;;;;;13.1;85.9;99320;;;;
2022/10/29 23:09:00;;;;;;;19.4;25;;;;;;;13;85.9;99310;;;;
2022/10/29 23:18:59;;;;;;;19.4;25;;;;;;;12.8;85.3;99300;;;;
2022/10/29 23:29:59;;;;;;;19.4;25;;;;;;;12.7;85.4;99310;;;;
2022/10/29 23:39:59;;;;;;;21.6;27;;;;;;;12.6;85.6;99300;;;;
2022/10/29 23:50:59;;;;;;;21.6;27;;;;;;;12.4;85.4;99320;;;;
